createdAt,value
2023-05-01T00:03:01.348Z,0.90
2023-05-01T00:08:26.115Z,0.93
2023-05-01T00:13:49.103Z,1.10
2023-05-01T00:19:13.052Z,1.13
2023-05-01T00:24:38.109Z,1.23
2023-05-01T00:30:02.065Z,1.03
2023-05-01T00:35:25.064Z,1.20
2023-05-01T00:40:56.128Z,1.10
2023-05-01T00:46:20.122Z,1.03
2023-05-01T00:51:44.061Z,1.10
2023-05-01T00:57:02.128Z,1.07
2023-05-01T01:02:25.155Z,1.10
2023-05-01T01:07:59.101Z,1.20
2023-05-01T01:13:28.144Z,1.20
2023-05-01T01:18:58.148Z,1.13
2023-05-01T01:24:42.170Z,1.20
2023-05-01T01:30:18.178Z,1.00
2023-05-01T01:35:45.134Z,1.30
2023-05-01T01:41:16.179Z,1.23
2023-05-01T01:46:45.192Z,1.40
2023-05-01T01:52:13.265Z,1.10
2023-05-01T01:57:37.151Z,1.10
2023-05-01T02:03:02.390Z,1.10
2023-05-01T02:08:29.077Z,1.20
2023-05-01T02:13:57.092Z,1.00
2023-05-01T02:19:22.129Z,1.10
2023-05-01T02:24:47.140Z,1.00
2023-05-01T02:30:12.132Z,1.23
2023-05-01T02:35:35.155Z,1.20
2023-05-01T02:41:16.214Z,1.10
2023-05-01T02:46:43.168Z,0.87
2023-05-01T02:52:07.371Z,1.17
2023-05-01T02:57:32.172Z,1.00
2023-05-01T03:02:55.308Z,1.33
2023-05-01T03:08:19.131Z,0.90
2023-05-01T03:13:44.193Z,1.13
2023-05-01T03:19:07.135Z,1.10
2023-05-01T03:24:30.188Z,1.10
2023-05-01T03:29:55.393Z,0.87
2023-05-01T03:35:22.335Z,1.13
2023-05-01T03:40:45.236Z,1.13
2023-05-01T03:46:28.484Z,0.90
2023-05-01T03:51:52.175Z,0.90
2023-05-01T03:57:16.322Z,1.10
2023-05-01T04:02:41.306Z,1.17
2023-05-01T04:08:12.290Z,1.20
2023-05-01T04:13:35.187Z,1.10
2023-05-01T04:19:02.247Z,1.23
2023-05-01T04:24:30.146Z,1.03
2023-05-01T04:29:54.503Z,1.20
2023-05-01T04:35:27.259Z,1.30
2023-05-01T04:40:50.232Z,0.97
2023-05-01T04:46:16.440Z,1.20
2023-05-01T04:51:41.213Z,1.23
2023-05-01T04:57:06.212Z,1.50
2023-05-01T05:02:29.311Z,1.43
2023-05-01T05:07:55.173Z,1.30
2023-05-01T05:13:24.305Z,1.30
2023-05-01T05:18:54.280Z,1.20
2023-05-01T05:24:25.330Z,1.10
2023-05-01T05:29:49.238Z,1.10
2023-05-01T05:35:13.295Z,1.40
2023-05-01T05:40:40.721Z,0.97
2023-05-01T05:46:07.370Z,1.23
2023-05-01T05:51:32.312Z,1.20
2023-05-01T05:56:58.335Z,1.20
2023-05-01T06:02:23.341Z,1.20
2023-05-01T06:07:47.383Z,1.33
2023-05-01T06:13:15.102Z,1.43
2023-05-01T06:18:55.328Z,1.23
2023-05-01T06:24:22.295Z,1.20
2023-05-01T06:29:50.333Z,1.10
2023-05-01T06:35:14.345Z,1.13
2023-05-01T06:40:38.271Z,1.03
2023-05-01T06:46:03.424Z,1.20
2023-05-01T06:51:26.341Z,1.23
2023-05-01T06:56:52.415Z,1.33
2023-05-01T07:02:20.477Z,1.13
2023-05-01T07:07:50.451Z,1.20
2023-05-01T07:13:23.253Z,1.13
2023-05-01T07:18:48.327Z,1.43
2023-05-01T07:24:12.439Z,1.37
2023-05-01T07:29:35.347Z,1.50
2023-05-01T07:35:01.336Z,1.20
2023-05-01T07:40:26.506Z,1.40
2023-05-01T07:45:49.371Z,1.20
2023-05-01T07:51:16.388Z,1.20
2023-05-01T07:56:40.389Z,1.20
2023-05-01T08:02:03.436Z,1.43
2023-05-01T08:07:28.417Z,1.50
2023-05-01T08:12:51.309Z,1.33
2023-05-01T08:18:14.578Z,1.60
2023-05-01T08:23:39.333Z,1.48
2023-05-01T08:29:03.337Z,1.17
2023-05-01T08:34:29.449Z,1.40
2023-05-01T08:39:54.635Z,1.42
2023-05-01T08:45:21.726Z,1.45
2023-05-01T08:50:47.719Z,1.60
2023-05-01T08:56:13.473Z,1.60
2023-05-01T09:01:39.468Z,1.75
2023-05-01T09:07:10.717Z,1.48
2023-05-01T09:12:37.647Z,1.50
2023-05-01T09:18:02.978Z,1.60
2023-05-01T09:23:28.521Z,1.63
2023-05-01T09:28:58.590Z,1.90
2023-05-01T09:34:30.647Z,1.70
2023-05-01T09:39:54.667Z,1.60
2023-05-01T09:45:26.189Z,1.58
2023-05-01T09:50:55.423Z,1.60
2023-05-01T09:56:24.520Z,1.65
2023-05-01T10:01:56.788Z,1.77
2023-05-01T10:07:21.492Z,1.50
2023-05-01T10:12:47.544Z,1.60
2023-05-01T10:18:17.659Z,1.60
2023-05-01T10:23:43.509Z,1.50
2023-05-01T10:29:11.645Z,1.45
2023-05-01T10:34:46.556Z,1.40
2023-05-01T10:40:51.771Z,1.58
2023-05-01T10:46:37.709Z,1.70
2023-05-01T10:52:16.479Z,1.80
2023-05-01T10:57:54.528Z,1.42
2023-05-01T11:03:58.553Z,1.30
2023-05-01T11:09:49.170Z,1.42
2023-05-01T11:15:21.507Z,1.52
2023-05-01T11:21:01.666Z,1.40
2023-05-01T11:26:35.500Z,1.30
2023-05-01T11:32:07.509Z,1.30
2023-05-01T11:37:34.587Z,1.30
2023-05-01T11:43:07.711Z,1.30
2023-05-01T11:48:36.046Z,1.55
2023-05-01T11:54:08.712Z,1.30
2023-05-01T11:59:38.352Z,1.23
2023-05-01T12:05:02.797Z,1.30
2023-05-01T12:10:36.771Z,1.27
2023-05-01T12:16:03.637Z,1.70
2023-05-01T12:21:32.125Z,1.50
2023-05-01T12:27:09.689Z,2.03
2023-05-01T12:32:47.634Z,1.95
2023-05-01T12:38:19.647Z,2.20
2023-05-01T12:43:48.620Z,1.65
2023-05-01T12:49:14.600Z,2.00
2023-05-01T12:54:49.533Z,1.60
2023-05-01T13:00:13.574Z,1.40
2023-05-01T13:05:47.528Z,1.70
2023-05-01T13:11:23.758Z,1.70
2023-05-01T13:16:57.121Z,1.20
2023-05-01T13:22:37.829Z,1.77
2023-05-01T13:28:06.728Z,1.75
2023-05-01T13:33:51.726Z,1.30
2023-05-01T13:39:22.800Z,1.27
2023-05-01T13:45:05.745Z,1.10
2023-05-01T13:50:33.722Z,1.17
2023-05-01T13:56:01.693Z,1.67
2023-05-01T14:01:30.953Z,1.83
2023-05-01T14:06:48.047Z,1.48
2023-05-01T14:12:03.993Z,1.50
2023-05-01T14:17:07.547Z,1.40
2023-05-01T14:22:11.237Z,1.60
2023-05-01T14:27:34.876Z,1.40
2023-05-01T14:32:42.559Z,1.40
2023-05-01T14:37:47.548Z,1.75
2023-05-01T14:43:01.835Z,1.10
2023-05-01T14:48:14.396Z,1.02
2023-05-01T14:53:23.603Z,1.00
2023-05-01T14:58:38.398Z,0.90
2023-05-01T15:03:46.063Z,1.10
2023-05-01T15:08:49.691Z,1.08
2023-05-01T15:13:57.128Z,1.00
2023-05-01T15:19:03.756Z,1.20
2023-05-01T15:24:08.233Z,1.20
2023-05-01T15:29:49.603Z,1.10
2023-05-01T15:52:35.633Z,1.60
2023-05-01T15:58:13.962Z,1.33
2023-05-01T16:04:14.006Z,1.50
2023-05-01T16:10:03.772Z,1.20
2023-05-01T16:16:13.078Z,1.40
2023-05-01T16:21:51.667Z,1.45
2023-05-01T16:27:42.587Z,1.67
2023-05-01T16:33:34.344Z,1.60
2023-05-01T16:50:55.192Z,1.27
2023-05-01T16:56:26.018Z,1.20
2023-05-01T17:01:57.114Z,1.30
2023-05-01T17:19:24.693Z,1.42
2023-05-01T17:25:10.799Z,1.50
2023-05-01T17:30:51.351Z,1.35
2023-05-01T17:36:24.014Z,1.33
2023-05-01T17:42:27.040Z,1.40
2023-05-01T17:48:09.169Z,1.30
2023-05-01T17:53:49.034Z,1.50
2023-05-01T17:59:12.304Z,1.23
2023-05-01T18:04:32.541Z,1.40
2023-05-01T18:10:01.052Z,1.25
2023-05-01T18:15:51.751Z,1.27
2023-05-01T18:27:07.451Z,1.30
2023-05-01T18:32:57.872Z,1.10
2023-05-01T18:38:47.884Z,1.00
2023-05-01T18:44:18.931Z,1.05
2023-05-01T18:50:06.619Z,0.90
2023-05-01T18:55:50.262Z,1.08
2023-05-01T19:01:20.851Z,1.10
2023-05-01T19:12:31.173Z,0.88
2023-05-01T19:17:53.995Z,0.83
2023-05-01T19:23:24.321Z,0.82
2023-05-01T19:28:58.904Z,0.80
2023-05-01T19:34:33.917Z,1.00
2023-05-01T19:40:11.861Z,0.90
2023-05-01T19:46:37.789Z,0.53
2023-05-01T19:51:48.993Z,0.70
2023-05-01T19:57:20.656Z,0.70
2023-05-01T20:02:43.687Z,1.00
2023-05-01T20:14:45.514Z,0.70
2023-05-01T20:31:04.022Z,1.00
2023-05-01T20:36:37.201Z,0.90
2023-05-01T20:47:21.295Z,0.90
2023-05-01T20:52:40.937Z,0.90
2023-05-01T20:58:00.578Z,1.00
2023-05-01T21:03:11.693Z,1.00
2023-05-01T21:08:56.324Z,0.80
2023-05-01T21:14:30.798Z,1.10
2023-05-01T21:20:16.321Z,0.87
2023-05-01T21:26:07.412Z,1.00
2023-05-01T21:32:03.462Z,0.97
2023-05-01T21:37:50.526Z,1.27
2023-05-01T21:43:45.072Z,0.93
2023-05-01T21:49:24.181Z,1.37
2023-05-01T21:54:44.986Z,1.40
2023-05-01T21:59:58.368Z,1.20
2023-05-01T22:05:34.993Z,1.20
2023-05-01T22:11:18.234Z,1.10
2023-05-01T22:16:52.688Z,1.30
2023-05-01T22:22:28.230Z,1.40
2023-05-01T22:27:59.451Z,1.37
2023-05-01T22:33:49.675Z,1.50
2023-05-01T22:39:38.126Z,1.40
2023-05-01T22:45:11.783Z,1.27
2023-05-01T23:02:27.109Z,1.23
2023-05-01T23:08:09.272Z,1.20
2023-05-01T23:13:40.893Z,1.37
2023-05-01T23:19:23.538Z,1.27
2023-05-01T23:24:58.554Z,1.33
2023-05-01T23:30:33.521Z,1.40
2023-05-01T23:36:06.317Z,1.43
2023-05-01T23:41:42.984Z,1.40
2023-05-01T23:47:10.723Z,1.47
2023-05-01T23:52:56.598Z,1.60
2023-05-01T23:59:02.739Z,1.53
